createdAt,value
2023-06-30T00:00:24.567Z,21.50
2023-06-30T00:01:24.383Z,21.51
2023-06-30T00:02:24.440Z,21.48
2023-06-30T00:03:24.476Z,21.45
2023-06-30T00:04:24.410Z,21.48
2023-06-30T00:05:24.754Z,21.50
2023-06-30T00:06:24.328Z,21.46
2023-06-30T00:07:24.318Z,21.48
2023-06-30T00:08:24.285Z,21.45
2023-06-30T00:09:24.274Z,21.50
2023-06-30T00:10:24.258Z,21.44
2023-06-30T00:11:24.270Z,21.45
2023-06-30T00:12:24.228Z,21.46
2023-06-30T00:13:24.211Z,21.45
2023-06-30T00:14:24.204Z,21.48
2023-06-30T00:15:24.201Z,21.46
2023-06-30T00:16:24.210Z,21.42
2023-06-30T00:17:24.174Z,21.44
2023-06-30T00:18:24.164Z,21.42
2023-06-30T00:19:24.126Z,21.44
2023-06-30T00:20:24.151Z,21.44
2023-06-30T00:21:24.108Z,21.39
2023-06-30T00:22:24.186Z,21.42
2023-06-30T00:23:24.078Z,21.41
2023-06-30T00:24:24.066Z,21.44
2023-06-30T00:25:24.051Z,21.42
2023-06-30T00:26:24.056Z,21.44
2023-06-30T00:27:24.026Z,21.44
2023-06-30T00:28:24.043Z,21.44
2023-06-30T00:29:23.982Z,21.44
2023-06-30T00:30:23.993Z,21.42
2023-06-30T00:31:24.001Z,21.45
2023-06-30T00:32:23.998Z,21.44
2023-06-30T00:33:23.933Z,21.45
2023-06-30T00:34:23.973Z,21.45
2023-06-30T00:35:23.915Z,21.46
2023-06-30T00:36:23.905Z,21.45
2023-06-30T00:37:23.911Z,21.46
2023-06-30T00:38:23.904Z,21.48
2023-06-30T00:39:23.869Z,21.44
2023-06-30T00:40:23.857Z,21.46
2023-06-30T00:41:23.837Z,21.45
2023-06-30T00:42:23.835Z,21.46
2023-06-30T00:43:23.809Z,21.46
2023-06-30T00:44:23.789Z,21.45
2023-06-30T00:45:23.788Z,21.50
2023-06-30T00:46:23.817Z,21.48
2023-06-30T00:47:23.779Z,21.46
2023-06-30T00:48:23.754Z,21.45
2023-06-30T00:49:23.730Z,21.45
2023-06-30T00:50:23.857Z,21.45
2023-06-30T00:51:23.686Z,21.45
2023-06-30T00:52:23.704Z,21.42
2023-06-30T00:53:23.669Z,21.41
2023-06-30T00:54:23.681Z,21.42
2023-06-30T00:55:23.636Z,21.41
2023-06-30T00:56:23.664Z,21.41
2023-06-30T00:57:23.604Z,21.39
2023-06-30T00:58:23.606Z,21.39
2023-06-30T00:59:23.578Z,21.39
2023-06-30T01:00:23.579Z,21.35
2023-06-30T01:01:23.633Z,21.35
2023-06-30T01:02:23.610Z,21.35
2023-06-30T01:03:23.679Z,21.34
2023-06-30T01:04:23.590Z,21.29
2023-06-30T01:05:23.500Z,21.29
2023-06-30T01:06:23.518Z,21.27
2023-06-30T01:07:23.606Z,21.26
2023-06-30T01:08:23.478Z,21.24
2023-06-30T01:09:23.459Z,21.24
2023-06-30T01:10:23.462Z,21.27
2023-06-30T01:11:23.419Z,21.24
2023-06-30T01:12:23.440Z,21.23
2023-06-30T01:13:23.413Z,21.23
2023-06-30T01:14:23.408Z,21.21
2023-06-30T01:15:23.450Z,21.21
2023-06-30T01:16:23.359Z,21.19
2023-06-30T01:17:23.373Z,21.20
2023-06-30T01:18:23.352Z,21.16
2023-06-30T01:19:23.319Z,21.14
2023-06-30T01:20:23.309Z,21.13
2023-06-30T01:21:23.291Z,21.11
2023-06-30T01:22:23.295Z,21.05
2023-06-30T01:23:23.265Z,21.05
2023-06-30T01:24:23.278Z,21.06
2023-06-30T01:25:23.273Z,21.06
2023-06-30T01:26:23.283Z,21.02
2023-06-30T01:27:23.235Z,20.99
2023-06-30T01:28:23.239Z,20.99
2023-06-30T01:29:23.209Z,21.01
2023-06-30T01:30:23.181Z,20.96
2023-06-30T01:31:23.250Z,20.95
2023-06-30T01:32:23.220Z,20.95
2023-06-30T01:33:23.139Z,20.91
2023-06-30T01:34:23.134Z,20.90
2023-06-30T01:35:23.117Z,20.89
2023-06-30T01:36:23.108Z,20.90
2023-06-30T01:37:23.102Z,20.86
2023-06-30T01:38:23.083Z,20.89
2023-06-30T01:39:23.091Z,20.86
2023-06-30T01:40:23.038Z,20.83
2023-06-30T01:41:23.060Z,20.80
2023-06-30T01:42:23.007Z,20.80
2023-06-30T01:43:22.997Z,20.79
2023-06-30T01:44:22.990Z,20.77
2023-06-30T01:45:23.055Z,20.77
2023-06-30T01:46:23.073Z,20.74
2023-06-30T01:47:22.961Z,20.74
2023-06-30T01:48:22.942Z,20.72
2023-06-30T01:49:22.911Z,20.72
2023-06-30T01:50:22.927Z,20.71
2023-06-30T01:51:22.909Z,20.71
2023-06-30T01:52:22.892Z,20.69
2023-06-30T01:53:22.863Z,20.68
2023-06-30T01:54:22.858Z,20.68
2023-06-30T01:55:22.869Z,20.64
2023-06-30T01:56:22.839Z,20.66
2023-06-30T01:57:22.842Z,20.66
2023-06-30T01:58:22.798Z,20.66
2023-06-30T01:59:22.776Z,20.62
2023-06-30T02:00:22.797Z,20.64
2023-06-30T02:01:22.766Z,20.64
2023-06-30T02:02:22.818Z,20.62
2023-06-30T02:03:22.804Z,20.62
2023-06-30T02:04:22.734Z,20.64
2023-06-30T02:05:22.701Z,20.58
2023-06-30T02:06:22.696Z,20.58
2023-06-30T02:07:22.681Z,20.56
2023-06-30T02:08:22.708Z,20.53
2023-06-30T02:09:30.915Z,20.51
2023-06-30T02:10:22.688Z,20.49
2023-06-30T02:11:22.637Z,20.50
2023-06-30T02:12:22.621Z,20.49
2023-06-30T02:13:22.679Z,20.50
2023-06-30T02:14:22.612Z,20.43
2023-06-30T02:15:22.565Z,20.42
2023-06-30T02:16:22.614Z,20.41
2023-06-30T02:17:22.587Z,20.39
2023-06-30T02:18:22.522Z,20.35
2023-06-30T02:19:22.532Z,20.35
2023-06-30T02:20:22.539Z,20.33
2023-06-30T02:21:22.476Z,20.31
2023-06-30T02:22:22.468Z,20.30
2023-06-30T02:23:22.452Z,20.28
2023-06-30T02:24:22.447Z,20.25
2023-06-30T02:25:22.448Z,20.23
2023-06-30T02:26:22.420Z,20.23
2023-06-30T02:27:22.404Z,20.23
2023-06-30T02:28:22.387Z,20.20
2023-06-30T02:29:22.376Z,20.18
2023-06-30T02:30:22.372Z,20.15
2023-06-30T02:31:22.407Z,20.18
2023-06-30T02:32:22.368Z,20.15
2023-06-30T02:33:23.193Z,20.13
2023-06-30T02:34:22.322Z,20.13
2023-06-30T02:35:22.329Z,20.09
2023-06-30T02:36:22.297Z,20.10
2023-06-30T02:37:22.288Z,20.08
2023-06-30T02:38:22.268Z,20.10
2023-06-30T02:39:22.315Z,20.09
2023-06-30T02:40:22.239Z,20.08
2023-06-30T02:41:22.203Z,20.06
2023-06-30T02:42:22.230Z,20.05
2023-06-30T02:43:22.187Z,20.05
2023-06-30T02:44:22.172Z,20.03
2023-06-30T02:45:22.157Z,20.06
2023-06-30T02:46:22.223Z,20.06
2023-06-30T02:47:22.499Z,20.06
2023-06-30T02:48:22.148Z,20.05
2023-06-30T02:49:22.112Z,20.08
2023-06-30T02:50:22.129Z,20.06
2023-06-30T02:51:22.067Z,20.12
2023-06-30T02:52:22.083Z,20.05
2023-06-30T02:53:22.051Z,20.08
2023-06-30T02:54:22.029Z,20.10
2023-06-30T02:55:22.017Z,20.10
2023-06-30T02:56:22.041Z,20.10
2023-06-30T02:57:22.002Z,20.12
2023-06-30T02:58:22.070Z,20.10
2023-06-30T02:59:21.966Z,20.13
2023-06-30T03:00:21.977Z,20.10
2023-06-30T03:01:22.019Z,20.13
2023-06-30T03:02:22.427Z,20.13
2023-06-30T03:03:22.030Z,20.12
2023-06-30T03:04:21.908Z,20.12
2023-06-30T03:05:21.881Z,20.12
2023-06-30T03:06:21.966Z,20.09
2023-06-30T03:07:21.898Z,20.09
2023-06-30T03:08:21.843Z,20.12
2023-06-30T03:09:21.999Z,20.09
2023-06-30T03:10:21.810Z,20.09
2023-06-30T03:11:21.803Z,20.09
2023-06-30T03:12:21.783Z,20.09
2023-06-30T03:13:21.780Z,20.06
2023-06-30T03:14:21.780Z,20.09
2023-06-30T03:15:21.748Z,20.10
2023-06-30T03:16:21.779Z,20.08
2023-06-30T03:17:21.775Z,20.10
2023-06-30T03:18:21.712Z,20.10
2023-06-30T03:19:21.713Z,20.10
2023-06-30T03:20:21.681Z,20.10
2023-06-30T03:21:21.679Z,20.08
2023-06-30T03:22:21.655Z,20.09
2023-06-30T03:23:21.692Z,20.09
2023-06-30T03:24:21.642Z,20.10
2023-06-30T03:25:21.649Z,20.09
2023-06-30T03:26:21.589Z,20.08
2023-06-30T03:27:21.586Z,20.10
2023-06-30T03:28:21.576Z,20.13
2023-06-30T03:29:21.557Z,20.10
2023-06-30T03:30:21.521Z,20.12
2023-06-30T03:31:21.595Z,20.16
2023-06-30T03:32:21.553Z,20.15
2023-06-30T03:33:21.492Z,20.16
2023-06-30T03:34:21.491Z,20.18
2023-06-30T03:35:21.468Z,20.20
2023-06-30T03:36:21.895Z,20.18
2023-06-30T03:37:21.446Z,20.18
2023-06-30T03:38:21.416Z,20.16
2023-06-30T03:39:21.452Z,20.18
2023-06-30T03:40:21.418Z,20.21
2023-06-30T03:41:21.412Z,20.20
2023-06-30T03:42:21.368Z,20.20
2023-06-30T03:43:21.366Z,20.25
2023-06-30T03:44:21.341Z,20.25
2023-06-30T03:45:21.346Z,20.28
2023-06-30T03:46:21.340Z,20.27
2023-06-30T03:47:21.369Z,20.30
2023-06-30T03:48:21.331Z,20.33
2023-06-30T03:49:21.271Z,20.34
2023-06-30T03:50:21.247Z,20.42
2023-06-30T03:51:21.251Z,20.42
2023-06-30T03:52:21.238Z,20.43
2023-06-30T03:53:21.239Z,20.49
2023-06-30T03:54:21.202Z,20.49
2023-06-30T03:55:21.196Z,20.50
2023-06-30T03:56:21.181Z,20.51
2023-06-30T03:57:21.176Z,20.53
2023-06-30T03:58:21.177Z,20.58
2023-06-30T03:59:21.150Z,20.59
2023-06-30T04:00:21.123Z,20.61
2023-06-30T04:01:21.120Z,20.65
2023-06-30T04:02:21.148Z,20.69
2023-06-30T04:03:21.234Z,20.72
2023-06-30T04:04:21.295Z,20.76
2023-06-30T04:05:21.063Z,20.77
2023-06-30T04:06:21.046Z,20.81
2023-06-30T04:07:21.147Z,20.83
2023-06-30T04:08:21.166Z,20.84
2023-06-30T04:09:21.009Z,20.89
2023-06-30T04:10:21.025Z,20.87
2023-06-30T04:11:20.996Z,20.91
2023-06-30T04:12:20.953Z,20.96
2023-06-30T04:13:20.961Z,21.01
2023-06-30T04:14:20.937Z,21.02
2023-06-30T04:15:20.962Z,21.08
2023-06-30T04:16:20.987Z,21.09
2023-06-30T04:17:20.955Z,21.13
2023-06-30T04:18:20.884Z,21.17
2023-06-30T04:19:20.869Z,21.21
2023-06-30T04:20:20.859Z,21.26
2023-06-30T04:21:21.066Z,21.29
2023-06-30T04:22:20.833Z,21.32
2023-06-30T04:23:20.848Z,21.38
2023-06-30T04:24:20.830Z,21.44
2023-06-30T04:25:20.822Z,21.51
2023-06-30T04:26:20.786Z,21.50
2023-06-30T04:27:20.783Z,21.54
2023-06-30T04:28:20.743Z,21.59
2023-06-30T04:29:20.782Z,21.61
2023-06-30T04:30:20.718Z,21.64
2023-06-30T04:31:20.734Z,21.72
2023-06-30T04:32:20.703Z,21.78
2023-06-30T04:33:20.684Z,21.83
2023-06-30T04:34:20.663Z,21.92
2023-06-30T04:35:20.697Z,21.98
2023-06-30T04:36:20.639Z,22.04
2023-06-30T04:37:20.728Z,22.07
2023-06-30T04:38:22.730Z,22.14
2023-06-30T04:39:20.615Z,22.17
2023-06-30T04:40:20.588Z,22.25
2023-06-30T04:41:20.609Z,22.31
2023-06-30T04:42:20.576Z,22.31
2023-06-30T04:43:20.553Z,22.38
2023-06-30T04:44:20.536Z,22.41
2023-06-30T04:45:20.564Z,22.49
2023-06-30T04:46:20.568Z,22.54
2023-06-30T04:47:20.521Z,22.64
2023-06-30T04:48:20.502Z,22.75
2023-06-30T04:49:20.486Z,22.93
2023-06-30T04:50:20.456Z,23.11
2023-06-30T04:51:20.474Z,23.38
2023-06-30T04:52:20.425Z,23.68
2023-06-30T04:53:20.423Z,24.35
2023-06-30T04:54:20.431Z,25.17
2023-06-30T04:55:20.387Z,26.06
2023-06-30T04:56:20.447Z,26.92
2023-06-30T04:57:20.370Z,27.98
2023-06-30T04:58:20.379Z,28.97
2023-06-30T04:59:20.390Z,29.86
2023-06-30T05:00:20.317Z,30.50
2023-06-30T05:01:20.365Z,31.15
2023-06-30T05:02:20.361Z,31.82
2023-06-30T05:03:20.370Z,32.43
2023-06-30T05:04:20.262Z,33.07
2023-06-30T05:05:20.478Z,33.70
2023-06-30T05:06:20.297Z,34.24
2023-06-30T05:07:20.323Z,34.80
2023-06-30T05:08:20.197Z,35.10
2023-06-30T05:09:20.219Z,35.39
2023-06-30T05:10:20.211Z,35.81
2023-06-30T05:11:20.192Z,36.39
2023-06-30T05:12:20.151Z,36.83
2023-06-30T05:13:20.146Z,36.87
2023-06-30T05:14:20.125Z,37.01
2023-06-30T05:15:20.110Z,37.46
2023-06-30T05:16:21.196Z,37.96
2023-06-30T05:17:20.268Z,38.41
2023-06-30T05:18:20.157Z,38.66
2023-06-30T05:19:20.079Z,38.95
2023-06-30T05:20:20.069Z,39.21
2023-06-30T05:21:20.054Z,39.47
2023-06-30T05:22:20.049Z,39.70
2023-06-30T05:23:20.048Z,39.89
2023-06-30T05:24:19.987Z,40.11
2023-06-30T05:25:19.980Z,40.17
2023-06-30T05:26:20.073Z,40.29
2023-06-30T05:27:19.956Z,40.34
2023-06-30T05:28:19.962Z,40.36
2023-06-30T05:29:19.930Z,40.33
2023-06-30T05:30:19.947Z,40.00
2023-06-30T05:31:19.936Z,39.05
2023-06-30T05:32:19.920Z,37.89
2023-06-30T05:33:19.922Z,36.99
2023-06-30T05:34:19.865Z,36.23
2023-06-30T05:35:19.857Z,35.66
2023-06-30T05:36:19.838Z,35.14
2023-06-30T05:37:19.833Z,34.69
2023-06-30T05:38:19.824Z,34.35
2023-06-30T05:39:19.796Z,34.27
2023-06-30T05:40:19.782Z,34.05
2023-06-30T05:41:19.793Z,33.57
2023-06-30T05:42:19.750Z,33.06
2023-06-30T05:43:19.741Z,32.64
2023-06-30T05:44:19.784Z,32.30
2023-06-30T05:45:19.733Z,31.99
2023-06-30T05:46:19.705Z,31.75
2023-06-30T05:47:19.830Z,31.50
2023-06-30T05:48:19.660Z,31.28
2023-06-30T05:49:19.689Z,31.06
2023-06-30T05:50:19.669Z,30.89
2023-06-30T05:51:19.643Z,30.68
2023-06-30T05:52:19.608Z,30.56
2023-06-30T05:53:19.603Z,30.43
2023-06-30T05:54:19.599Z,30.29
2023-06-30T05:55:19.629Z,30.15
2023-06-30T05:56:19.559Z,30.05
2023-06-30T05:57:19.554Z,29.94
2023-06-30T05:58:19.569Z,29.82
2023-06-30T05:59:19.538Z,29.72
2023-06-30T06:00:19.544Z,29.57
2023-06-30T06:01:19.517Z,29.47
2023-06-30T06:02:19.573Z,29.43
2023-06-30T06:03:19.630Z,29.37
2023-06-30T06:04:19.702Z,29.34
2023-06-30T06:05:19.599Z,29.28
2023-06-30T06:06:19.453Z,29.28
2023-06-30T06:07:19.515Z,29.23
2023-06-30T06:08:19.404Z,29.22
2023-06-30T06:09:19.414Z,29.25
2023-06-30T06:10:19.369Z,29.26
2023-06-30T06:11:19.368Z,29.29
2023-06-30T06:12:19.450Z,29.33
2023-06-30T06:13:19.360Z,29.37
2023-06-30T06:14:19.314Z,29.40
2023-06-30T06:15:19.316Z,29.44
2023-06-30T06:16:19.323Z,29.60
2023-06-30T06:17:19.535Z,29.77
2023-06-30T06:18:19.307Z,29.90
2023-06-30T06:19:19.313Z,29.93
2023-06-30T06:20:19.249Z,29.99
2023-06-30T06:21:19.250Z,30.07
2023-06-30T06:22:19.230Z,30.11
2023-06-30T06:23:19.231Z,30.11
2023-06-30T06:24:19.202Z,30.18
2023-06-30T06:25:19.198Z,30.30
2023-06-30T06:26:19.169Z,30.46
2023-06-30T06:27:19.205Z,30.34
2023-06-30T06:28:19.152Z,30.23
2023-06-30T06:29:19.127Z,30.12
2023-06-30T06:30:19.133Z,29.99
2023-06-30T06:31:19.218Z,29.89
2023-06-30T06:32:19.113Z,29.89
2023-06-30T06:33:19.079Z,29.86
2023-06-30T06:34:19.067Z,29.84
2023-06-30T06:35:19.052Z,29.86
2023-06-30T06:36:19.048Z,29.71
2023-06-30T06:37:19.029Z,29.57
2023-06-30T06:38:19.016Z,29.50
2023-06-30T06:39:18.989Z,29.52
2023-06-30T06:40:18.996Z,29.53
2023-06-30T06:41:18.972Z,29.47
2023-06-30T06:42:19.720Z,29.40
2023-06-30T06:43:18.973Z,29.22
2023-06-30T06:44:18.938Z,29.23
2023-06-30T06:45:18.938Z,29.13
2023-06-30T06:46:18.977Z,29.08
2023-06-30T06:47:18.913Z,29.13
2023-06-30T06:48:18.955Z,29.16
2023-06-30T06:49:18.869Z,29.22
2023-06-30T06:50:18.841Z,29.26
2023-06-30T06:51:18.869Z,29.26
2023-06-30T06:52:18.815Z,29.31
2023-06-30T06:53:18.802Z,29.34
2023-06-30T06:54:18.814Z,29.37
2023-06-30T06:55:18.784Z,29.40
2023-06-30T06:56:18.792Z,29.40
2023-06-30T06:57:18.918Z,29.44
2023-06-30T06:58:18.728Z,29.49
2023-06-30T06:59:18.721Z,29.53
2023-06-30T07:00:18.695Z,29.55
2023-06-30T07:01:18.783Z,29.50
2023-06-30T07:02:18.699Z,29.49
2023-06-30T07:03:18.786Z,29.45
2023-06-30T07:04:18.740Z,29.40
2023-06-30T07:05:18.645Z,29.34
2023-06-30T07:06:18.687Z,29.35
2023-06-30T07:07:18.653Z,29.34
2023-06-30T07:08:18.607Z,29.37
2023-06-30T07:09:18.638Z,29.41
2023-06-30T07:10:18.620Z,29.44
2023-06-30T07:11:18.560Z,29.47
2023-06-30T07:12:18.536Z,29.56
2023-06-30T07:13:18.560Z,29.60
2023-06-30T07:14:18.512Z,29.62
2023-06-30T07:15:18.506Z,29.56
2023-06-30T07:16:18.547Z,29.57
2023-06-30T07:17:18.500Z,29.57
2023-06-30T07:18:18.587Z,29.53
2023-06-30T07:19:18.454Z,29.49
2023-06-30T07:20:18.423Z,29.47
2023-06-30T07:21:18.557Z,29.44
2023-06-30T07:22:18.398Z,29.45
2023-06-30T07:23:18.420Z,29.43
2023-06-30T07:24:18.393Z,29.41
2023-06-30T07:25:18.382Z,29.41
2023-06-30T07:26:18.418Z,29.45
2023-06-30T07:27:18.361Z,29.41
2023-06-30T07:28:18.326Z,29.38
2023-06-30T07:29:18.346Z,29.37
2023-06-30T07:30:18.304Z,29.35
2023-06-30T07:31:18.322Z,29.35
2023-06-30T07:32:20.174Z,29.40
2023-06-30T07:33:18.265Z,29.43
2023-06-30T07:34:18.275Z,29.45
2023-06-30T07:35:18.225Z,29.49
2023-06-30T07:36:18.233Z,29.53
2023-06-30T07:37:18.200Z,29.53
2023-06-30T07:38:18.199Z,29.56
2023-06-30T07:39:18.187Z,29.59
2023-06-30T07:40:19.874Z,29.53
2023-06-30T07:41:18.314Z,29.57
2023-06-30T07:42:18.149Z,29.56
2023-06-30T07:43:18.135Z,29.59
2023-06-30T07:44:18.110Z,29.62
2023-06-30T07:45:18.110Z,29.63
2023-06-30T07:46:18.131Z,29.63
2023-06-30T07:47:18.098Z,29.66
2023-06-30T07:48:18.129Z,29.66
2023-06-30T07:49:18.056Z,29.63
2023-06-30T07:50:18.057Z,29.68
2023-06-30T07:51:18.024Z,29.71
2023-06-30T07:52:18.019Z,29.78
2023-06-30T07:53:18.015Z,29.82
2023-06-30T07:54:18.020Z,29.86
2023-06-30T07:55:17.991Z,29.84
2023-06-30T07:56:17.971Z,29.86
2023-06-30T07:57:17.989Z,29.86
2023-06-30T07:58:17.999Z,29.90
2023-06-30T07:59:18.702Z,29.90
2023-06-30T08:00:18.039Z,29.92
2023-06-30T08:01:17.940Z,29.89
2023-06-30T08:02:17.895Z,29.92
2023-06-30T08:03:18.072Z,29.94
2023-06-30T08:04:18.180Z,30.00
2023-06-30T08:05:18.033Z,30.09
2023-06-30T08:06:17.918Z,30.14
2023-06-30T08:07:17.819Z,30.19
2023-06-30T08:08:17.801Z,30.27
2023-06-30T08:09:17.771Z,30.33
2023-06-30T08:10:17.817Z,30.31
2023-06-30T08:11:17.762Z,30.38
2023-06-30T08:12:17.763Z,30.37
2023-06-30T08:13:17.717Z,30.43
2023-06-30T08:14:17.708Z,30.46
2023-06-30T08:15:17.710Z,30.49
2023-06-30T08:16:17.717Z,30.57
2023-06-30T08:17:24.933Z,30.59
2023-06-30T08:18:32.056Z,30.57
2023-06-30T08:19:22.464Z,30.59
2023-06-30T08:20:17.820Z,30.62
2023-06-30T08:21:17.735Z,30.59
2023-06-30T08:22:17.685Z,30.53
2023-06-30T08:23:17.995Z,30.53
2023-06-30T08:24:17.785Z,30.53
2023-06-30T08:25:17.873Z,30.57
2023-06-30T08:26:17.584Z,30.59
2023-06-30T08:27:17.529Z,30.61
2023-06-30T08:28:17.645Z,30.65
2023-06-30T08:29:17.508Z,30.69
2023-06-30T08:30:17.633Z,30.71
2023-06-30T08:31:17.532Z,30.78
2023-06-30T08:32:17.491Z,30.80
2023-06-30T08:33:30.585Z,30.80
2023-06-30T08:34:17.454Z,30.84
2023-06-30T08:35:17.469Z,30.83
2023-06-30T08:36:17.428Z,30.84
2023-06-30T08:37:17.422Z,30.87
2023-06-30T08:38:17.389Z,30.89
2023-06-30T08:39:17.394Z,30.93
2023-06-30T08:40:17.385Z,30.99
2023-06-30T08:41:17.334Z,31.04
2023-06-30T08:42:17.336Z,31.05
2023-06-30T08:43:18.422Z,31.06
2023-06-30T08:44:17.309Z,31.05
2023-06-30T08:45:17.285Z,31.06
2023-06-30T08:46:17.357Z,31.09
2023-06-30T08:47:17.307Z,31.13
2023-06-30T08:48:17.279Z,31.17
2023-06-30T08:49:17.249Z,31.27
2023-06-30T08:50:17.237Z,31.30
2023-06-30T08:51:17.525Z,31.33
2023-06-30T08:52:17.221Z,31.42
2023-06-30T08:53:17.205Z,31.42
2023-06-30T08:54:17.176Z,31.46
2023-06-30T08:55:17.170Z,31.45
2023-06-30T08:56:17.214Z,31.50
2023-06-30T08:57:17.164Z,31.53
2023-06-30T08:58:25.455Z,31.62
2023-06-30T08:59:17.126Z,31.75
2023-06-30T09:00:17.158Z,31.92
2023-06-30T09:01:17.178Z,32.07
2023-06-30T09:02:18.145Z,32.18
2023-06-30T09:03:17.212Z,32.20
2023-06-30T09:04:17.136Z,32.17
2023-06-30T09:05:17.104Z,32.06
2023-06-30T09:06:17.082Z,32.00
2023-06-30T09:07:17.018Z,32.02
2023-06-30T09:08:17.015Z,31.99
2023-06-30T09:09:16.994Z,32.00
2023-06-30T09:10:16.965Z,32.05
2023-06-30T09:11:16.970Z,32.13
2023-06-30T09:12:16.945Z,32.20
2023-06-30T09:13:16.933Z,32.20
2023-06-30T09:14:16.922Z,32.22
2023-06-30T09:15:16.913Z,32.22
2023-06-30T09:16:18.879Z,32.22
2023-06-30T09:17:16.897Z,32.22
2023-06-30T09:18:17.136Z,32.22
2023-06-30T09:19:16.847Z,32.18
2023-06-30T09:20:16.847Z,32.17
2023-06-30T09:21:16.821Z,32.18
2023-06-30T09:22:52.301Z,32.21
2023-06-30T09:23:16.946Z,32.22
2023-06-30T09:24:16.812Z,32.22
2023-06-30T09:25:17.490Z,32.29
2023-06-30T09:26:16.778Z,32.32
2023-06-30T09:27:16.733Z,32.43
2023-06-30T09:28:16.753Z,32.49
2023-06-30T09:29:16.703Z,32.55
2023-06-30T09:30:16.701Z,32.59
2023-06-30T09:31:16.724Z,32.62
2023-06-30T09:32:16.751Z,32.62
2023-06-30T09:33:16.661Z,32.66
2023-06-30T09:34:16.683Z,32.74
2023-06-30T09:35:16.637Z,32.88
2023-06-30T09:36:16.618Z,33.52
2023-06-30T09:37:16.614Z,35.10
2023-06-30T09:38:16.635Z,37.31
2023-06-30T09:39:16.584Z,39.20
2023-06-30T09:40:16.582Z,40.45
2023-06-30T09:41:16.539Z,39.21
2023-06-30T09:42:16.538Z,38.49
2023-06-30T09:43:16.542Z,38.95
2023-06-30T09:44:16.568Z,40.05
2023-06-30T09:45:16.500Z,40.04
2023-06-30T09:46:16.551Z,40.90
2023-06-30T09:47:16.490Z,41.55
2023-06-30T09:48:16.467Z,40.52
2023-06-30T09:49:16.460Z,39.47
2023-06-30T09:50:16.450Z,38.58
2023-06-30T09:51:16.433Z,37.90
2023-06-30T09:52:16.402Z,37.42
2023-06-30T09:53:16.738Z,36.98
2023-06-30T09:54:16.387Z,36.67
2023-06-30T09:55:16.443Z,36.63
2023-06-30T09:56:16.361Z,36.68
2023-06-30T09:57:16.328Z,37.58
2023-06-30T09:58:16.348Z,39.46
2023-06-30T09:59:16.309Z,39.03
2023-06-30T10:00:33.839Z,40.05
2023-06-30T10:01:16.318Z,41.24
2023-06-30T10:02:16.272Z,42.65
2023-06-30T10:03:16.343Z,43.48
2023-06-30T10:04:16.257Z,45.23
2023-06-30T10:05:16.232Z,47.96
2023-06-30T10:06:16.242Z,50.39
2023-06-30T10:07:16.323Z,52.71
2023-06-30T10:08:16.260Z,54.69
2023-06-30T10:09:16.214Z,56.44
2023-06-30T10:10:16.212Z,57.89
2023-06-30T10:11:16.225Z,59.15
2023-06-30T10:12:16.155Z,60.26
2023-06-30T10:13:16.156Z,61.15
2023-06-30T10:14:16.123Z,62.00
2023-06-30T10:15:16.109Z,62.71
2023-06-30T10:16:16.099Z,63.38
2023-06-30T10:17:16.126Z,63.95
2023-06-30T10:18:16.108Z,64.58
2023-06-30T10:19:16.088Z,65.14
2023-06-30T10:20:16.060Z,65.62
2023-06-30T10:21:16.020Z,66.06
2023-06-30T10:22:16.044Z,66.45
2023-06-30T10:23:16.004Z,66.80
2023-06-30T10:24:15.989Z,67.17
2023-06-30T10:25:16.014Z,67.54
2023-06-30T10:26:15.989Z,67.89
2023-06-30T10:27:15.978Z,68.20
2023-06-30T10:28:15.942Z,68.46
2023-06-30T10:29:15.930Z,68.75
2023-06-30T10:30:15.940Z,69.02
2023-06-30T10:31:15.922Z,69.26
2023-06-30T10:32:15.902Z,69.40
2023-06-30T10:33:15.957Z,69.54
2023-06-30T10:34:15.883Z,69.72
2023-06-30T10:35:15.878Z,69.78
2023-06-30T10:36:15.873Z,69.83
2023-06-30T10:37:15.838Z,69.89
2023-06-30T10:38:15.868Z,70.02
2023-06-30T10:39:15.844Z,70.25
2023-06-30T10:40:15.827Z,70.38
2023-06-30T10:41:15.870Z,70.41
2023-06-30T10:42:15.809Z,70.35
2023-06-30T10:43:15.770Z,70.34
2023-06-30T10:44:15.790Z,70.34
2023-06-30T10:45:15.755Z,70.47
2023-06-30T10:46:15.756Z,70.49
2023-06-30T10:47:15.819Z,70.47
2023-06-30T10:48:15.729Z,70.47
2023-06-30T10:49:15.707Z,70.47
2023-06-30T10:50:15.743Z,70.49
2023-06-30T10:51:15.686Z,70.28
2023-06-30T10:52:15.694Z,68.60
2023-06-30T10:53:15.670Z,64.99
2023-06-30T10:54:15.694Z,61.25
2023-06-30T10:55:15.660Z,58.19
2023-06-30T10:56:15.640Z,55.65
2023-06-30T10:57:15.650Z,53.60
2023-06-30T10:58:15.625Z,51.89
2023-06-30T10:59:15.602Z,50.44
2023-06-30T11:00:15.766Z,49.13
2023-06-30T11:01:15.578Z,48.01
2023-06-30T11:02:15.578Z,46.94
2023-06-30T11:03:15.627Z,45.95
2023-06-30T11:04:15.635Z,45.09
2023-06-30T11:05:15.516Z,44.31
2023-06-30T11:06:15.808Z,43.58
2023-06-30T11:07:15.526Z,42.94
2023-06-30T11:08:15.489Z,42.34
2023-06-30T11:09:15.468Z,41.77
2023-06-30T11:10:15.481Z,41.28
2023-06-30T11:11:15.440Z,40.86
2023-06-30T11:12:15.456Z,40.45
2023-06-30T11:13:15.433Z,40.07
2023-06-30T11:14:15.469Z,39.74
2023-06-30T11:15:15.386Z,39.40
2023-06-30T11:16:15.390Z,39.06
2023-06-30T11:17:15.388Z,38.82
2023-06-30T11:18:15.426Z,38.57
2023-06-30T11:19:15.351Z,38.34
2023-06-30T11:20:15.350Z,38.14
2023-06-30T11:21:15.315Z,37.92
2023-06-30T11:22:15.343Z,37.77
2023-06-30T11:23:15.287Z,37.59
2023-06-30T11:24:15.296Z,37.46
2023-06-30T11:25:15.256Z,37.26
2023-06-30T11:26:15.590Z,37.21
2023-06-30T11:27:15.231Z,37.10
2023-06-30T11:28:15.291Z,37.07
2023-06-30T11:29:15.236Z,37.12
2023-06-30T11:30:15.214Z,37.23
2023-06-30T11:31:15.219Z,37.50
2023-06-30T11:32:15.209Z,38.10
2023-06-30T11:33:15.152Z,39.30
2023-06-30T11:34:15.168Z,41.27
2023-06-30T11:35:15.122Z,43.67
2023-06-30T11:36:15.132Z,45.50
2023-06-30T11:37:15.125Z,45.31
2023-06-30T11:38:15.099Z,43.85
2023-06-30T11:39:15.103Z,42.51
2023-06-30T11:40:15.093Z,41.44
2023-06-30T11:41:15.087Z,40.59
2023-06-30T11:42:15.048Z,39.88
2023-06-30T11:43:15.039Z,39.33
2023-06-30T11:44:15.023Z,38.82
2023-06-30T11:45:15.021Z,38.36
2023-06-30T11:46:15.050Z,38.03
2023-06-30T11:47:15.008Z,37.64
2023-06-30T11:48:14.970Z,37.32
2023-06-30T11:49:14.953Z,37.02
2023-06-30T11:50:14.939Z,36.79
2023-06-30T11:51:14.955Z,36.57
2023-06-30T11:52:14.914Z,36.41
2023-06-30T11:53:14.900Z,36.24
2023-06-30T11:54:14.883Z,36.03
2023-06-30T11:55:14.895Z,35.92
2023-06-30T11:56:14.899Z,35.77
2023-06-30T11:57:14.856Z,35.66
2023-06-30T11:58:14.830Z,35.58
2023-06-30T11:59:14.819Z,35.50
2023-06-30T12:00:14.794Z,35.35
2023-06-30T12:01:14.835Z,35.29
2023-06-30T12:02:14.893Z,35.17
2023-06-30T12:03:14.826Z,35.10
2023-06-30T12:04:14.822Z,35.02
2023-06-30T12:05:14.781Z,34.95
2023-06-30T12:06:14.736Z,34.86
2023-06-30T12:07:14.748Z,34.84
2023-06-30T12:08:14.768Z,34.81
2023-06-30T12:09:14.704Z,34.76
2023-06-30T12:10:14.692Z,34.66
2023-06-30T12:11:14.668Z,34.64
2023-06-30T12:12:14.645Z,34.53
2023-06-30T12:13:14.665Z,34.53
2023-06-30T12:14:14.617Z,34.48
2023-06-30T12:15:14.630Z,34.45
2023-06-30T12:16:14.693Z,34.50
2023-06-30T12:17:14.652Z,34.45
2023-06-30T12:18:14.569Z,34.42
2023-06-30T12:19:14.924Z,34.41
2023-06-30T12:20:14.556Z,34.35
2023-06-30T12:21:14.571Z,34.36
2023-06-30T12:22:14.505Z,34.36
2023-06-30T12:23:14.524Z,34.31
2023-06-30T12:24:14.601Z,34.27
2023-06-30T12:25:14.492Z,34.23
2023-06-30T12:26:14.463Z,34.22
2023-06-30T12:27:14.453Z,34.23
2023-06-30T12:28:14.438Z,34.19
2023-06-30T12:29:14.435Z,34.20
2023-06-30T12:30:14.438Z,34.16
2023-06-30T12:31:14.421Z,34.11
2023-06-30T12:32:14.385Z,34.08
2023-06-30T12:33:14.388Z,34.04
2023-06-30T12:34:14.366Z,34.01
2023-06-30T12:35:14.388Z,33.95
2023-06-30T12:36:14.911Z,33.87
2023-06-30T12:37:14.337Z,33.82
2023-06-30T12:38:14.318Z,33.82
2023-06-30T12:39:14.305Z,33.73
2023-06-30T12:40:14.313Z,33.64
2023-06-30T12:41:14.343Z,33.57
2023-06-30T12:42:14.288Z,33.49
2023-06-30T12:43:14.302Z,33.51
2023-06-30T12:44:14.254Z,33.41
2023-06-30T12:45:14.230Z,33.36
2023-06-30T12:46:14.265Z,33.31
2023-06-30T12:47:14.306Z,33.30
2023-06-30T12:48:14.236Z,33.23
2023-06-30T12:49:14.193Z,33.17
2023-06-30T12:50:14.170Z,33.11
2023-06-30T12:51:14.187Z,32.95
2023-06-30T12:52:14.157Z,32.86